createdAt,value
2023-05-12T00:00:56.233Z,94795.34
2023-05-12T00:03:23.994Z,94794.53
2023-05-12T00:05:51.742Z,94800.59
2023-05-12T00:08:19.299Z,94798.94
2023-05-12T00:10:46.757Z,94799.78
2023-05-12T00:13:15.648Z,94792.88
2023-05-12T00:15:43.266Z,94792.88
2023-05-12T00:18:10.714Z,94790.28
2023-05-12T00:20:39.162Z,94794.72
2023-05-12T00:23:06.624Z,94795.50
2023-05-12T00:25:34.375Z,94794.72
2023-05-12T00:28:01.830Z,94795.69
2023-05-12T00:30:31.085Z,94793.88
2023-05-12T00:32:58.749Z,94790.44
2023-05-12T00:35:26.249Z,94790.44
2023-05-12T00:37:53.789Z,94789.63
2023-05-12T00:40:21.485Z,94779.16
2023-05-12T00:42:49.638Z,94773.91
2023-05-12T00:45:17.133Z,94786.03
2023-05-12T00:47:46.436Z,94776.53
2023-05-12T00:50:14.272Z,94775.72
2023-05-12T00:52:41.742Z,94780.81
2023-05-12T00:55:09.666Z,94776.72
2023-05-12T00:57:37.237Z,94772.31
2023-05-12T01:00:05.158Z,94777.53
2023-05-12T01:02:32.730Z,94779.97
2023-05-12T01:05:01.857Z,94780.94
2023-05-12T01:07:32.676Z,94772.13
2023-05-12T01:10:01.917Z,94776.53
2023-05-12T01:12:32.592Z,94774.09
2023-05-12T01:15:01.681Z,94779.16
2023-05-12T01:17:32.456Z,94771.31
2023-05-12T01:20:03.671Z,94767.88
2023-05-12T01:22:32.070Z,94775.56
2023-05-12T01:25:00.950Z,94767.72
2023-05-12T01:27:30.317Z,94769.50
2023-05-12T01:29:59.380Z,94761.66
2023-05-12T01:32:27.221Z,94761.66
2023-05-12T01:34:54.730Z,94766.06
2023-05-12T01:37:22.172Z,94766.91
2023-05-12T01:39:49.627Z,94761.66
2023-05-12T01:42:17.085Z,94764.28
2023-05-12T01:44:46.060Z,94767.88
2023-05-12T01:47:15.194Z,94771.47
2023-05-12T01:49:42.634Z,94767.06
2023-05-12T01:52:10.049Z,94769.69
2023-05-12T01:54:37.833Z,94767.06
2023-05-12T01:57:05.613Z,94765.44
2023-05-12T01:59:33.042Z,94765.44
2023-05-12T02:02:01.858Z,94776.72
2023-05-12T02:04:29.313Z,94763.63
2023-05-12T02:06:56.773Z,94759.38
2023-05-12T02:09:24.223Z,94762.00
2023-05-12T02:11:51.920Z,94765.44
2023-05-12T02:14:19.348Z,94759.38
2023-05-12T02:16:47.333Z,94760.19
2023-05-12T02:19:16.269Z,94764.59
2023-05-12T02:21:46.032Z,94766.44
2023-05-12T02:24:14.901Z,94759.53
2023-05-12T02:26:42.490Z,94755.97
2023-05-12T02:29:10.684Z,94758.56
2023-05-12T02:31:38.213Z,94754.31
2023-05-12T02:34:06.759Z,94755.13
2023-05-12T02:36:35.698Z,94750.09
2023-05-12T02:39:03.174Z,94760.38
2023-05-12T02:41:30.597Z,94747.47
2023-05-12T02:43:58.478Z,94756.94
2023-05-12T02:46:26.242Z,94762.16
2023-05-12T02:48:53.774Z,94759.53
2023-05-12T02:51:21.209Z,94757.75
2023-05-12T02:53:49.995Z,94757.75
2023-05-12T02:56:18.291Z,94765.44
2023-05-12T02:58:45.836Z,94758.56
2023-05-12T03:01:13.336Z,94764.59
2023-05-12T03:03:41.368Z,94767.22
2023-05-12T03:06:09.418Z,94763.97
2023-05-12T03:08:37.204Z,94762.16
2023-05-12T03:11:06.119Z,94762.16
2023-05-12T03:13:33.572Z,94769.03
2023-05-12T03:16:01.571Z,94767.41
2023-05-12T03:18:29.576Z,94770.84
2023-05-12T03:20:57.115Z,94771.66
2023-05-12T03:23:24.645Z,94772.63
2023-05-12T03:25:52.112Z,94770.00
2023-05-12T03:28:22.879Z,94772.63
2023-05-12T03:30:50.328Z,94769.19
2023-05-12T03:33:17.806Z,94767.56
2023-05-12T03:35:45.282Z,94771.97
2023-05-12T03:38:12.726Z,94764.78
2023-05-12T03:40:40.164Z,94768.53
2023-05-12T03:43:07.571Z,94772.81
2023-05-12T03:45:36.306Z,94764.97
2023-05-12T03:48:03.794Z,94771.81
2023-05-12T03:50:31.252Z,94766.75
2023-05-12T03:52:58.694Z,94766.75
2023-05-12T03:55:26.152Z,94765.94
2023-05-12T03:57:53.584Z,94770.34
2023-05-12T04:00:21.431Z,94772.94
2023-05-12T04:02:51.050Z,94771.16
2023-05-12T04:05:18.604Z,94774.78
2023-05-12T04:07:46.051Z,94769.38
2023-05-12T04:10:13.492Z,94767.56
2023-05-12T04:12:40.929Z,94771.00
2023-05-12T04:15:09.112Z,94771.81
2023-05-12T04:17:36.870Z,94769.19
2023-05-12T04:20:06.300Z,94766.44
2023-05-12T04:22:33.751Z,94776.72
2023-05-12T04:25:01.187Z,94775.72
2023-05-12T04:27:28.621Z,94777.53
2023-05-12T04:29:56.176Z,94782.78
2023-05-12T04:32:23.662Z,94783.56
2023-05-12T04:34:51.651Z,94785.22
2023-05-12T04:37:22.249Z,94784.25
2023-05-12T04:39:49.668Z,94788.66
2023-05-12T04:42:17.116Z,94786.03
2023-05-12T04:44:46.106Z,94792.09
2023-05-12T04:47:13.634Z,94788.66
2023-05-12T04:49:41.031Z,94788.66
2023-05-12T04:52:08.504Z,94796.50
2023-05-12T04:54:38.905Z,94799.94
2023-05-12T04:57:06.662Z,94801.75
2023-05-12T04:59:34.184Z,94803.53
2023-05-12T05:02:01.672Z,94801.75
2023-05-12T05:04:29.115Z,94799.94
2023-05-12T05:06:56.558Z,94802.72
2023-05-12T05:09:23.998Z,94808.75
2023-05-12T05:11:52.762Z,94801.88
2023-05-12T05:14:20.276Z,94802.72
2023-05-12T05:16:48.343Z,94806.31
2023-05-12T05:19:23.349Z,94801.09
2023-05-12T05:21:57.564Z,94802.88
2023-05-12T05:24:25.403Z,94802.72
2023-05-12T05:26:54.152Z,94804.50
2023-05-12T05:29:21.630Z,94810.72
2023-05-12T05:31:49.174Z,94810.72
2023-05-12T05:34:16.776Z,94809.91
2023-05-12T05:36:44.199Z,94813.34
2023-05-12T05:39:11.645Z,94808.13
2023-05-12T05:41:39.097Z,94808.94
2023-05-12T05:44:07.881Z,94812.53
2023-05-12T05:46:35.324Z,94808.13
2023-05-12T05:49:02.823Z,94804.69
2023-05-12T05:51:30.296Z,94803.84
2023-05-12T05:53:57.776Z,94807.28
2023-05-12T05:56:25.192Z,94806.47
2023-05-12T05:58:53.254Z,94814.19
2023-05-12T06:01:22.034Z,94811.69
2023-05-12T06:03:49.586Z,94820.38
2023-05-12T06:06:17.177Z,94817.75
2023-05-12T06:08:44.614Z,94806.31
2023-05-12T06:11:12.037Z,94811.69
2023-05-12T06:13:39.523Z,94812.53
2023-05-12T06:16:07.085Z,94814.31
2023-05-12T06:18:38.246Z,94820.38
2023-05-12T06:21:06.205Z,94817.59
2023-05-12T06:23:33.663Z,94824.66
2023-05-12T06:26:01.088Z,94819.41
2023-05-12T06:28:28.529Z,94822.03
2023-05-12T06:30:55.982Z,94822.16
2023-05-12T06:33:23.396Z,94823.00
2023-05-12T06:35:52.234Z,94827.41
2023-05-12T06:38:19.685Z,94827.41
2023-05-12T06:40:47.152Z,94833.47
2023-05-12T06:43:14.890Z,94830.03
2023-05-12T06:45:42.347Z,94836.06
2023-05-12T06:48:10.337Z,94837.88
2023-05-12T06:50:37.818Z,94837.06
2023-05-12T06:53:08.051Z,94828.41
2023-05-12T06:55:35.526Z,94832.63
2023-05-12T06:58:03.124Z,94831.03
2023-05-12T07:00:30.672Z,94838.88
2023-05-12T07:02:58.442Z,94836.25
2023-05-12T07:05:26.173Z,94829.38
2023-05-12T07:07:53.840Z,94832.81
2023-05-12T07:31:14.963Z,94834.59
2023-05-12T10:57:30.096Z,94871.72
2023-05-12T13:06:45.891Z,94878.28
2023-05-12T13:09:13.906Z,94885.31
2023-05-12T16:51:38.128Z,94901.34
2023-05-12T16:54:05.550Z,94904.94
2023-05-12T16:56:32.981Z,94911.81
2023-05-12T16:59:01.016Z,94905.75
2023-05-12T17:01:30.202Z,94910.19
2023-05-12T17:03:57.871Z,94903.13
2023-05-12T17:06:25.377Z,94914.41
2023-05-12T17:08:54.151Z,94905.59
2023-05-12T17:11:21.577Z,94907.38
2023-05-12T17:13:49.012Z,94912.63
2023-05-12T17:16:16.628Z,94909.00
2023-05-12T17:21:14.438Z,94922.91
2023-05-12T17:23:41.949Z,94908.22
2023-05-12T17:26:10.715Z,94918.69
2023-05-12T17:28:38.188Z,94916.06
2023-05-12T17:31:07.183Z,94927.31
2023-05-12T17:33:34.768Z,94923.91
2023-05-12T17:36:11.342Z,94931.78
2023-05-12T17:38:40.243Z,94929.94
2023-05-12T17:41:07.745Z,94932.56
2023-05-12T17:43:36.597Z,94926.53
2023-05-12T17:46:04.724Z,94924.72
2023-05-12T17:48:33.368Z,94935.19
2023-05-12T17:51:01.338Z,94937.00
2023-05-12T17:53:28.808Z,94936.19
2023-05-12T17:55:56.601Z,94937.00
2023-05-12T17:58:24.223Z,94942.22
2023-05-12T18:00:53.130Z,94939.63
2023-05-12T18:03:23.827Z,94937.78
2023-05-12T18:05:51.849Z,94954.31
2023-05-12T18:08:19.699Z,94944.84
2023-05-12T18:10:47.308Z,94952.69
2023-05-12T18:13:15.969Z,94956.28
2023-05-12T18:15:43.472Z,94950.09
2023-05-12T18:18:14.405Z,94953.50
2023-05-12T18:20:42.348Z,94953.50
2023-05-12T18:23:09.864Z,94945.81
2023-05-12T18:25:37.381Z,94954.50
2023-05-12T18:28:06.984Z,94954.50
2023-05-12T18:30:34.459Z,94951.88
2023-05-12T18:33:02.021Z,94948.13
2023-05-12T18:35:31.009Z,94952.03
2023-05-12T18:37:58.426Z,94950.25
2023-05-12T18:40:25.903Z,94962.19
2023-05-12T18:42:53.394Z,94952.34
2023-05-12T18:45:21.205Z,94965.28
2023-05-12T18:47:48.871Z,94963.50
2023-05-12T18:50:16.665Z,94959.91
2023-05-12T18:52:45.435Z,94958.59
2023-05-12T18:55:12.848Z,94966.75
2023-05-12T18:57:40.398Z,94966.91
2023-05-12T19:00:09.772Z,94965.63
2023-05-12T19:02:37.459Z,94965.75
2023-05-12T19:05:05.263Z,94974.75
2023-05-12T19:07:32.709Z,94975.72
2023-05-12T19:40:40.341Z,94991.59
2023-05-12T19:43:10.021Z,94994.03
2023-05-12T19:45:37.537Z,94991.25
2023-05-12T19:48:05.490Z,94990.28
2023-05-12T19:50:33.163Z,94989.28
2023-05-12T19:53:00.601Z,94991.78
2023-05-12T19:55:28.050Z,94999.44
2023-05-12T19:57:56.978Z,94990.63
2023-05-12T20:00:26.589Z,94999.94
2023-05-12T20:02:54.192Z,95002.25
2023-05-12T20:05:21.857Z,94996.03
2023-05-12T20:07:50.250Z,94992.44
2023-05-12T20:10:17.720Z,95000.94
2023-05-12T20:12:45.165Z,94992.91
2023-05-12T20:15:14.237Z,94997.34
2023-05-12T20:17:43.199Z,94995.38
2023-05-12T20:20:12.020Z,94997.00
2023-05-12T20:22:39.544Z,94999.63
2023-05-12T20:25:07.527Z,95004.72
2023-05-12T20:27:34.959Z,94998.66
2023-05-12T20:30:02.424Z,94998.66
2023-05-12T20:32:31.635Z,94998.00
2023-05-12T20:34:59.599Z,95001.09
2023-05-12T20:37:27.365Z,94996.03
2023-05-12T20:39:55.641Z,94999.81
2023-05-12T20:42:23.081Z,95001.28
2023-05-12T20:44:50.925Z,95001.28
2023-05-12T20:47:18.685Z,94999.63
2023-05-12T20:49:47.573Z,95001.94
2023-05-12T20:52:15.172Z,95000.44
2023-05-12T20:54:42.594Z,94995.38
2023-05-12T20:57:10.239Z,94994.25
2023-05-12T20:59:37.748Z,94992.59
2023-05-12T21:02:05.344Z,95001.09
2023-05-12T21:04:32.822Z,95000.13
2023-05-12T21:07:01.601Z,94993.59
2023-05-12T21:09:29.187Z,94999.50
2023-05-12T21:11:56.599Z,95001.44
2023-05-12T21:14:24.067Z,94995.69
2023-05-12T21:16:51.517Z,95000.28
2023-05-12T21:19:19.047Z,95000.59
2023-05-12T21:21:46.462Z,95005.34
2023-05-12T21:24:15.455Z,95008.13
2023-05-12T21:26:43.090Z,95005.66
2023-05-12T21:29:10.725Z,95006.00
2023-05-12T21:31:38.412Z,95004.50
2023-05-12T21:34:06.080Z,95008.91
2023-05-12T21:36:34.079Z,95010.72
2023-05-12T21:39:01.712Z,95012.53
2023-05-12T21:41:30.760Z,95014.31
2023-05-12T21:43:58.366Z,95013.31
2023-05-12T21:46:26.060Z,95012.66
2023-05-12T21:48:53.709Z,95006.78
2023-05-12T21:51:21.306Z,95013.00
2023-05-12T21:53:48.900Z,95015.63
2023-05-12T21:56:17.156Z,95013.97
2023-05-12T21:58:46.138Z,95010.53
2023-05-12T22:01:14.148Z,95017.59
2023-05-12T22:03:41.869Z,95009.88
2023-05-12T22:06:09.612Z,95010.03
2023-05-12T22:08:37.195Z,95009.38
2023-05-12T22:11:04.922Z,95008.56
2023-05-12T22:13:32.585Z,95019.19
2023-05-12T22:16:01.530Z,95014.94
2023-05-12T22:18:29.208Z,95013.78
2023-05-12T22:20:56.893Z,95008.56
2023-05-12T22:23:24.527Z,95007.44
2023-05-12T22:25:52.133Z,95008.91
2023-05-12T22:28:19.785Z,95006.13
2023-05-12T22:30:47.451Z,95001.72
2023-05-12T22:33:16.433Z,95005.00
2023-05-12T22:35:44.031Z,94999.75
2023-05-12T22:38:11.698Z,95005.00
2023-05-12T22:40:39.292Z,95001.25
2023-05-12T22:43:07.572Z,94997.63
2023-05-12T22:45:35.124Z,95004.69
2023-05-12T22:48:03.210Z,95001.25
2023-05-12T22:50:32.608Z,95001.06
2023-05-12T22:53:00.300Z,95003.84
2023-05-12T22:55:30.729Z,95003.69
2023-05-12T22:57:59.674Z,94997.63
2023-05-12T23:00:27.408Z,94999.44
2023-05-12T23:02:55.335Z,94998.44
2023-05-12T23:05:22.977Z,94994.22
2023-05-12T23:07:51.984Z,94990.44
2023-05-12T23:10:20.078Z,94992.41
2023-05-12T23:12:47.982Z,94982.75
2023-05-12T23:15:15.609Z,94990.59
2023-05-12T23:17:43.220Z,94988.81
2023-05-12T23:20:11.335Z,94984.53
2023-05-12T23:22:39.016Z,94985.38
2023-05-12T23:25:09.179Z,94993.88
2023-05-12T23:27:36.831Z,94979.97
2023-05-12T23:30:04.865Z,94976.56
2023-05-12T23:32:32.590Z,94972.94
2023-05-12T23:35:00.449Z,94984.25
2023-05-12T23:37:28.047Z,94977.22
2023-05-12T23:39:55.798Z,94976.38
2023-05-12T23:42:24.769Z,94976.38
2023-05-12T23:44:52.620Z,94977.22
2023-05-12T23:47:20.493Z,94966.75
2023-05-12T23:49:48.099Z,94967.56
2023-05-12T23:52:15.698Z,94964.13
2023-05-12T23:54:43.275Z,94965.94
2023-05-12T23:57:10.891Z,94962.34
2023-05-12T23:59:39.862Z,94964.13
